Time;durP1;ratioP1;P1;durP2;ratioP2;P2;SDS_P1;SDS_P2;PMS_P1;PMS_P2;Temp;Humidity;BMP_temperature;BMP_pressure;BME280_temperature;BME280_humidity;BME280_pressure;Samples;Min_cycle;Max_cycle;Signal;HPM_P1;HPM_P2
2022/10/27 00:01:25;;;;;;;3.45;1.90;;;17.10;99.90;;;;;;5050928;28;20174;-82
2022/10/27 00:03:51;;;;;;;8.63;2.63;;;17.00;99.90;;;;;;5050415;28;20534;-80
2022/10/27 00:06:17;;;;;;;6.70;2.22;;;17.00;99.90;;;;;;5055425;28;20553;-81
2022/10/27 00:08:42;;;;;;;5.05;2.20;;;17.00;99.90;;;;;;5056211;28;20217;-85
2022/10/27 00:11:08;;;;;;;5.53;2.70;;;17.00;99.90;;;;;;5055915;28;20652;-81
2022/10/27 00:13:35;;;;;;;6.30;2.53;;;17.00;99.90;;;;;;5054289;28;20171;-83
2022/10/27 00:16:03;;;;;;;4.55;2.53;;;17.00;99.90;;;;;;5054664;28;21315;-80
2022/10/27 00:18:30;;;;;;;7.53;2.50;;;17.00;99.90;;;;;;5053819;28;20163;-81
2022/10/27 00:21:01;;;;;;;4.03;2.30;;;17.00;99.90;;;;;;5054801;28;20167;-82
2022/10/27 00:23:27;;;;;;;7.75;2.80;;;16.90;99.90;;;;;;5055569;28;20250;-81
2022/10/27 00:25:54;;;;;;;18.52;2.78;;;16.90;99.90;;;;;;5054324;28;20167;-81
2022/10/27 00:28:20;;;;;;;6.97;2.50;;;16.90;99.90;;;;;;5054723;28;20713;-81
2022/10/27 00:30:46;;;;;;;4.82;2.42;;;16.90;99.90;;;;;;5054447;28;20179;-92
2022/10/27 00:33:12;;;;;;;7.15;2.40;;;16.90;99.90;;;;;;5056828;28;20652;-89
2022/10/27 00:35:37;;;;;;;7.18;2.55;;;17.00;99.90;;;;;;5055406;28;20206;-91
2022/10/27 00:38:03;;;;;;;9.70;2.15;;;16.80;99.90;;;;;;5056240;28;20189;-90
2022/10/27 00:40:34;;;;;;;8.13;3.05;;;16.80;99.90;;;;;;5055696;28;20614;-81
2022/10/27 00:42:59;;;;;;;8.13;2.65;;;16.90;99.90;;;;;;5055479;28;20587;-80
2022/10/27 00:45:25;;;;;;;4.43;2.70;;;16.90;99.90;;;;;;5054213;28;20246;-81
2022/10/27 00:47:51;;;;;;;7.95;2.30;;;17.00;99.90;;;;;;5055199;28;20202;-81
2022/10/27 00:50:21;;;;;;;3.50;2.10;;;17.00;99.90;;;;;;5055307;28;20210;-92
2022/10/27 00:52:57;;;;;;;4.07;2.53;;;16.90;99.90;;;;;;5055087;28;20204;-82
2022/10/27 00:55:28;;;;;;;5.40;2.50;;;16.80;99.90;;;;;;5053857;28;20175;-92
2022/10/27 00:57:57;;;;;;;5.53;2.35;;;16.80;99.90;;;;;;5053904;28;20214;-81
2022/10/27 01:00:23;;;;;;;9.15;2.50;;;16.90;99.90;;;;;;5053699;28;20175;-92
2022/10/27 01:02:49;;;;;;;3.85;2.50;;;16.80;99.90;;;;;;5054890;28;20224;-81
2022/10/27 01:05:18;;;;;;;5.03;2.42;;;16.90;99.90;;;;;;5054934;28;20233;-81
2022/10/27 01:07:49;;;;;;;5.47;2.58;;;16.90;99.90;;;;;;5053654;28;20183;-81
2022/10/27 01:10:15;;;;;;;12.63;2.30;;;16.90;99.90;;;;;;5055513;28;20206;-80
2022/10/27 01:12:42;;;;;;;5.68;2.30;;;17.00;99.90;;;;;;5055830;28;20168;-88
2022/10/27 01:15:09;;;;;;;5.18;2.00;;;17.00;99.90;;;;;;5059732;28;20171;-85
2022/10/27 01:18:04;;;;;;;6.60;2.22;;;16.90;99.90;;;;;;5055456;28;20179;-82
2022/10/27 01:21:07;;;;;;;6.53;1.98;;;17.00;99.90;;;;;;5053523;28;20255;-82
2022/10/27 01:24:02;;;;;;;7.80;2.28;;;17.00;99.90;;;;;;5053423;28;20174;-81
2022/10/27 01:26:34;;;;;;;9.77;2.13;;;17.10;99.90;;;;;;5054545;28;20245;-81
2022/10/27 01:29:18;;;;;;;7.80;2.08;;;16.90;99.90;;;;;;5053009;28;20217;-82
2022/10/27 01:32:17;;;;;;;3.47;1.80;;;16.90;99.90;;;;;;5054480;28;20213;-81
2022/10/27 01:34:56;;;;;;;11.35;2.38;;;16.80;99.90;;;;;;5053128;28;20171;-84
2022/10/27 01:37:44;;;;;;;6.13;2.38;;;16.80;99.90;;;;;;5053085;28;20541;-81
2022/10/27 01:40:21;;;;;;;8.50;2.47;;;16.90;99.90;;;;;;5024024;28;20717;-81
2022/10/27 01:42:50;;;;;;;6.50;2.65;;;16.90;99.90;;;;;;5053142;28;20174;-83
2022/10/27 01:45:26;;;;;;;3.88;2.45;;;16.80;99.90;;;;;;5052997;28;20178;-91
2022/10/27 01:47:54;;;;;;;3.85;2.22;;;16.70;99.90;;;;;;5052618;28;20191;-81
2022/10/27 01:50:26;;;;;;;5.25;2.15;;;16.60;99.90;;;;;;5052797;28;20218;-82
2022/10/27 01:52:52;;;;;;;1.75;1.33;;;16.60;99.90;;;;;;5054258;28;20163;-82
2022/10/27 01:55:38;;;;;;;3.55;1.65;;;16.50;99.90;;;;;;5052405;28;20221;-84
2022/10/27 01:58:07;;;;;;;6.18;2.00;;;16.50;99.90;;;;;;5052350;28;20548;-82
2022/10/27 02:00:42;;;;;;;7.97;1.63;;;16.50;99.90;;;;;;5052304;28;20183;-81
2022/10/27 02:03:13;;;;;;;3.15;1.60;;;16.70;99.90;;;;;;5053664;28;20232;-92
2022/10/27 02:06:01;;;;;;;4.68;1.40;;;16.70;99.90;;;;;;5053907;28;20189;-81
2022/10/27 02:08:34;;;;;;;7.53;1.52;;;16.70;99.90;;;;;;5053833;28;20175;-81
2022/10/27 02:11:05;;;;;;;3.95;1.90;;;16.60;99.90;;;;;;5052661;28;20641;-92
2022/10/27 02:13:33;;;;;;;4.18;1.58;;;16.60;99.90;;;;;;5052722;28;20189;-82
2022/10/27 02:16:13;;;;;;;6.50;1.60;;;16.60;99.90;;;;;;5051873;28;20194;-82
2022/10/27 02:18:44;;;;;;;3.25;1.27;;;16.50;99.90;;;;;;5052700;28;20203;-81
2022/10/27 02:21:11;;;;;;;4.40;1.80;;;16.50;99.90;;;;;;5052979;28;20277;-87
2022/10/27 02:23:37;;;;;;;6.00;1.75;;;16.60;99.90;;;;;;5053397;28;20716;-92
2022/10/27 02:26:51;;;;;;;11.98;1.95;;;16.60;99.90;;;;;;5052010;28;20215;-80
2022/10/27 02:29:23;;;;;;;2.90;1.40;;;16.60;99.90;;;;;;5008467;28;20305;-90
2022/10/27 02:31:52;;;;;;;3.08;1.52;;;16.60;99.90;;;;;;5053296;28;20250;-91
2022/10/27 02:34:18;;;;;;;6.57;1.20;;;16.50;99.90;;;;;;5054145;28;20175;-81
2022/10/27 02:36:44;;;;;;;2.33;1.30;;;16.40;99.90;;;;;;5058998;28;20191;-81
2022/10/27 02:39:10;;;;;;;6.05;1.30;;;16.40;99.90;;;;;;5062796;28;20202;-81
2022/10/27 02:41:36;;;;;;;3.00;1.38;;;16.50;99.90;;;;;;5061048;28;20530;-80
2022/10/27 02:44:01;;;;;;;5.70;1.60;;;16.40;99.90;;;;;;5062960;28;20151;-80
2022/10/27 02:46:27;;;;;;;1.83;1.23;;;16.40;99.90;;;;;;5062866;28;20221;-81
2022/10/27 02:48:53;;;;;;;3.30;1.30;;;16.50;99.90;;;;;;5053063;28;20270;-90
2022/10/27 02:51:18;;;;;;;2.95;1.30;;;16.60;99.90;;;;;;5051766;28;20170;-89
2022/10/27 02:53:44;;;;;;;5.80;1.40;;;16.50;99.90;;;;;;5051766;28;20175;-80
2022/10/27 02:56:09;;;;;;;8.02;1.73;;;16.50;99.90;;;;;;5051924;28;20187;-91
2022/10/27 02:58:35;;;;;;;7.68;1.30;;;16.50;99.90;;;;;;5051528;28;20225;-88
2022/10/27 03:01:01;;;;;;;2.25;1.13;;;16.40;99.90;;;;;;5051734;28;20175;-87
2022/10/27 03:03:27;;;;;;;9.00;1.45;;;16.40;99.90;;;;;;5052515;28;20229;-90
2022/10/27 03:05:52;;;;;;;1.42;1.20;;;16.40;99.90;;;;;;5051477;28;20190;-80
2022/10/27 03:08:18;;;;;;;5.80;1.30;;;16.40;99.90;;;;;;5053113;28;20163;-81
2022/10/27 03:10:44;;;;;;;5.07;1.33;;;16.40;99.90;;;;;;5051660;28;20272;-91
2022/10/27 03:13:10;;;;;;;2.65;1.30;;;16.40;99.90;;;;;;5051437;28;20171;-80
2022/10/27 03:15:35;;;;;;;5.28;1.35;;;16.40;99.90;;;;;;5051692;28;20171;-80
2022/10/27 03:18:01;;;;;;;2.72;1.08;;;16.50;99.90;;;;;;5051281;28;20670;-80
2022/10/27 03:20:27;;;;;;;5.50;1.65;;;16.60;99.90;;;;;;5051531;28;20194;-91
2022/10/27 03:22:52;;;;;;;6.35;2.15;;;16.50;99.90;;;;;;5052386;28;20167;-80
2022/10/27 03:25:18;;;;;;;4.63;1.80;;;16.50;99.90;;;;;;5051189;28;20652;-81
2022/10/27 03:27:44;;;;;;;10.25;2.08;;;16.50;99.90;;;;;;5051088;28;20604;-81
2022/10/27 03:30:12;;;;;;;4.38;1.50;;;16.60;99.90;;;;;;5052664;28;20203;-81
2022/10/27 03:32:38;;;;;;;3.58;1.50;;;16.60;99.90;;;;;;5053115;28;20205;-80
2022/10/27 03:35:05;;;;;;;4.38;1.67;;;16.60;99.90;;;;;;5060247;28;20175;-79
2022/10/27 03:37:30;;;;;;;4.03;1.42;;;16.60;99.90;;;;;;5055191;28;20625;-81
2022/10/27 03:39:56;;;;;;;5.97;1.60;;;16.60;99.90;;;;;;5062783;28;20198;-80
2022/10/27 03:42:21;;;;;;;5.10;1.70;;;16.50;99.90;;;;;;5063049;28;20187;-80
2022/10/27 03:44:47;;;;;;;3.40;1.42;;;16.50;99.90;;;;;;5062870;28;20183;-80
2022/10/27 03:47:12;;;;;;;2.22;1.10;;;16.50;99.90;;;;;;5063785;28;20206;-83
2022/10/27 03:49:38;;;;;;;4.20;1.23;;;16.50;99.90;;;;;;5062766;28;20194;-82
2022/10/27 03:52:04;;;;;;;3.65;1.90;;;16.40;99.90;;;;;;5067044;28;20164;-85
2022/10/27 03:54:30;;;;;;;8.20;1.50;;;16.30;99.90;;;;;;5080979;28;20163;-82
2022/10/27 03:56:56;;;;;;;2.95;1.70;;;16.30;99.90;;;;;;5079597;28;20172;-82
2022/10/27 03:59:22;;;;;;;7.82;1.70;;;16.40;99.90;;;;;;5080520;28;20203;-85
2022/10/27 04:01:48;;;;;;;10.95;1.90;;;16.20;99.90;;;;;;5079767;28;20164;-81
2022/10/27 04:04:13;;;;;;;5.55;1.85;;;16.20;99.90;;;;;;5079223;28;20175;-81
2022/10/27 04:06:39;;;;;;;5.03;2.15;;;16.20;99.90;;;;;;5079516;28;20191;-81
2022/10/27 04:09:05;;;;;;;7.88;3.63;;;16.20;99.90;;;;;;5079058;28;20516;-82
2022/10/27 04:11:30;;;;;;;5.57;2.47;;;16.20;99.90;;;;;;5079625;28;20238;-81
2022/10/27 04:13:56;;;;;;;9.63;2.70;;;16.20;99.90;;;;;;5080345;28;20167;-81
2022/10/27 04:16:21;;;;;;;4.70;2.63;;;16.20;99.90;;;;;;5080583;28;20179;-85
2022/10/27 04:18:47;;;;;;;9.23;3.55;;;16.20;99.90;;;;;;5079909;28;20201;-83
2022/10/27 04:21:14;;;;;;;5.72;2.85;;;16.30;99.90;;;;;;5080041;28;20172;-82
2022/10/27 04:23:39;;;;;;;6.70;2.28;;;16.20;99.90;;;;;;5079630;28;20158;-80
2022/10/27 04:26:05;;;;;;;7.25;2.53;;;16.20;99.90;;;;;;5080222;28;20187;-83
2022/10/27 04:28:31;;;;;;;4.75;1.98;;;16.20;99.90;;;;;;5079865;28;20214;-81
2022/10/27 04:30:57;;;;;;;2.45;1.35;;;16.10;99.90;;;;;;5080034;28;20181;-81
2022/10/27 04:33:22;;;;;;;5.20;1.75;;;16.20;99.90;;;;;;5079343;28;20158;-82
2022/10/27 04:35:48;;;;;;;1.75;1.20;;;16.10;99.90;;;;;;5079577;28;20194;-85
2022/10/27 04:38:13;;;;;;;4.13;1.48;;;16.10;99.90;;;;;;5080158;28;20167;-79
2022/10/27 04:40:39;;;;;;;5.47;1.83;;;16.10;99.90;;;;;;5080188;28;20371;-80
2022/10/27 04:43:06;;;;;;;4.40;1.85;;;16.20;99.90;;;;;;5079647;28;20201;-83
2022/10/27 04:45:35;;;;;;;6.10;1.70;;;16.30;99.90;;;;;;5079491;28;20178;-83
2022/10/27 04:48:00;;;;;;;2.35;1.30;;;16.30;99.90;;;;;;5079473;28;20251;-81
2022/10/27 04:50:26;;;;;;;10.27;1.33;;;16.50;99.90;;;;;;5077963;28;20204;-80
2022/10/27 04:53:00;;;;;;;7.65;1.30;;;16.40;99.90;;;;;;5079251;28;20175;-83
2022/10/27 04:55:27;;;;;;;1.70;1.10;;;16.40;99.90;;;;;;5078934;28;20653;-80
2022/10/27 04:57:53;;;;;;;2.17;1.17;;;16.30;99.90;;;;;;5079016;28;20190;-81
2022/10/27 05:00:19;;;;;;;5.00;0.93;;;16.30;99.90;;;;;;5079195;28;20197;-81
2022/10/27 05:02:44;;;;;;;4.55;1.00;;;16.30;99.90;;;;;;5078709;28;20167;-81
2022/10/27 05:05:10;;;;;;;8.43;1.55;;;16.30;99.90;;;;;;5079453;28;20251;-80
2022/10/27 05:07:36;;;;;;;4.45;1.20;;;16.30;99.90;;;;;;5079390;28;20202;-81
2022/10/27 05:10:01;;;;;;;4.38;0.90;;;16.20;99.90;;;;;;5078696;28;20187;-84
2022/10/27 05:12:27;;;;;;;2.58;1.08;;;16.20;99.90;;;;;;5068444;28;20190;-82
2022/10/27 05:14:52;;;;;;;4.97;1.52;;;16.20;99.90;;;;;;5053784;28;20175;-82
2022/10/27 05:17:18;;;;;;;8.38;1.45;;;16.10;99.90;;;;;;5053880;28;20684;-80
2022/10/27 05:19:44;;;;;;;4.78;1.55;;;16.10;99.90;;;;;;5054418;28;20203;-80
2022/10/27 05:22:09;;;;;;;1.67;1.20;;;16.10;99.90;;;;;;5054732;28;20163;-81
2022/10/27 05:24:35;;;;;;;2.13;1.23;;;16.10;99.90;;;;;;5053742;28;20167;-81
2022/10/27 05:27:00;;;;;;;4.88;1.20;;;16.00;99.90;;;;;;5053731;28;20669;-80
2022/10/27 05:29:26;;;;;;;8.38;1.30;;;16.10;99.90;;;;;;5054613;28;20207;-80
2022/10/27 05:31:54;;;;;;;2.70;0.95;;;16.10;99.90;;;;;;5054834;28;20254;-80
2022/10/27 05:34:19;;;;;;;1.77;0.82;;;16.30;99.90;;;;;;5054334;28;20720;-89
2022/10/27 05:36:46;;;;;;;1.27;0.63;;;16.30;99.90;;;;;;5054780;28;20199;-90
2022/10/27 05:39:12;;;;;;;5.28;0.80;;;16.20;99.90;;;;;;5053217;28;20173;-87
2022/10/27 05:41:37;;;;;;;6.72;1.13;;;16.10;99.90;;;;;;5055075;28;20676;-81
2022/10/27 05:44:03;;;;;;;1.17;0.70;;;16.20;99.90;;;;;;5054838;28;20178;-91
2022/10/27 05:46:29;;;;;;;2.83;1.38;;;16.30;99.90;;;;;;5054477;28;20183;-85
2022/10/27 05:48:54;;;;;;;1.85;0.70;;;16.30;99.90;;;;;;5054005;28;20264;-79
2022/10/27 05:51:20;;;;;;;3.95;1.05;;;16.30;99.90;;;;;;5052757;28;20174;-81
2022/10/27 05:53:49;;;;;;;3.88;0.98;;;16.30;99.90;;;;;;5053350;28;20224;-81
2022/10/27 05:56:15;;;;;;;2.40;1.10;;;16.30;99.90;;;;;;5053384;28;20195;-86
2022/10/27 05:58:40;;;;;;;3.97;0.75;;;16.40;99.90;;;;;;5054166;28;20198;-88
2022/10/27 06:01:06;;;;;;;3.13;0.90;;;16.50;99.90;;;;;;5061900;28;20193;-87
2022/10/27 06:03:31;;;;;;;4.97;0.90;;;16.50;99.90;;;;;;5058317;28;20633;-89
2022/10/27 06:06:01;;;;;;;6.13;1.30;;;16.40;99.90;;;;;;5056252;28;20641;-81
2022/10/27 06:08:27;;;;;;;1.52;0.90;;;16.40;99.90;;;;;;5053088;28;20231;-81
2022/10/27 06:10:53;;;;;;;17.80;1.10;;;16.40;99.90;;;;;;5053775;28;20258;-81
2022/10/27 06:13:19;;;;;;;0.93;0.77;;;16.40;99.90;;;;;;5052257;28;20167;-81
2022/10/27 06:15:45;;;;;;;3.63;1.48;;;16.40;99.90;;;;;;5053720;28;20163;-82
2022/10/27 06:18:12;;;;;;;7.90;1.48;;;16.40;99.90;;;;;;5053616;28;20681;-88
2022/10/27 06:20:37;;;;;;;2.17;1.30;;;16.50;99.90;;;;;;5052545;28;20224;-83
2022/10/27 06:23:03;;;;;;;4.63;1.25;;;16.40;99.90;;;;;;5051731;28;20175;-89
2022/10/27 06:25:29;;;;;;;5.72;1.10;;;16.50;99.90;;;;;;5046592;28;20237;-80
2022/10/27 06:27:55;;;;;;;3.80;1.45;;;16.50;99.90;;;;;;5051344;28;20198;-81
2022/10/27 06:30:21;;;;;;;1.85;0.85;;;16.50;99.90;;;;;;5052516;28;20530;-82
2022/10/27 06:32:46;;;;;;;4.13;1.00;;;16.40;99.90;;;;;;5048805;28;20170;-83
2022/10/27 06:35:12;;;;;;;6.43;1.10;;;16.40;99.90;;;;;;5050991;28;20166;-91
2022/10/27 06:37:39;;;;;;;7.00;1.20;;;16.50;99.90;;;;;;5050618;28;20195;-83
2022/10/27 06:40:06;;;;;;;4.55;1.35;;;16.50;99.90;;;;;;5053261;28;20186;-82
2022/10/27 06:42:34;;;;;;;2.20;1.20;;;16.50;99.90;;;;;;5051487;28;20676;-82
2022/10/27 06:45:00;;;;;;;2.00;1.00;;;16.50;99.90;;;;;;5052039;28;20266;-82
2022/10/27 06:47:25;;;;;;;4.82;1.63;;;16.60;99.90;;;;;;5052512;28;20606;-91
2022/10/27 06:49:51;;;;;;;3.35;1.85;;;16.60;99.90;;;;;;5053645;28;20199;-89
2022/10/27 06:52:16;;;;;;;5.35;1.25;;;16.60;99.90;;;;;;5048086;28;20176;-92
2022/10/27 06:54:42;;;;;;;3.88;1.40;;;16.70;99.90;;;;;;5033667;28;20269;-83
2022/10/27 06:57:08;;;;;;;4.22;1.65;;;16.80;99.90;;;;;;5032553;28;20251;-82
2022/10/27 06:59:33;;;;;;;5.13;1.67;;;16.80;99.90;;;;;;5050642;28;20202;-86
2022/10/27 07:01:59;;;;;;;5.82;1.00;;;16.70;99.90;;;;;;5053565;28;20167;-86
2022/10/27 07:04:24;;;;;;;3.28;1.45;;;16.80;99.90;;;;;;5052908;28;20174;-94
2022/10/27 07:06:50;;;;;;;11.23;1.40;;;16.80;99.90;;;;;;5050581;28;20248;-82
2022/10/27 07:09:15;;;;;;;1.33;1.02;;;16.80;99.90;;;;;;5040836;28;20211;-83
2022/10/27 07:11:41;;;;;;;2.35;1.08;;;16.80;99.90;;;;;;5031460;28;20629;-82
2022/10/27 07:14:07;;;;;;;4.65;1.52;;;16.70;99.90;;;;;;5047924;28;20234;-82
2022/10/27 07:16:32;;;;;;;13.68;1.65;;;16.70;99.90;;;;;;5053518;28;20194;-94
2022/10/27 07:18:58;;;;;;;4.55;1.52;;;16.70;99.90;;;;;;5053022;28;20182;-88
2022/10/27 07:21:23;;;;;;;4.65;1.50;;;16.80;99.90;;;;;;5051734;28;20175;-84
2022/10/27 07:23:49;;;;;;;6.35;1.48;;;16.80;99.90;;;;;;5052892;28;20182;-89
2022/10/27 07:26:15;;;;;;;5.45;1.30;;;16.90;99.90;;;;;;5052156;28;20197;-87
2022/10/27 07:28:40;;;;;;;7.00;1.33;;;16.80;99.90;;;;;;5049057;28;20176;-86
2022/10/27 07:31:06;;;;;;;6.40;1.33;;;17.00;99.90;;;;;;5041347;28;20175;-85
2022/10/27 07:33:31;;;;;;;7.70;1.50;;;17.10;99.90;;;;;;5052523;28;20163;-87
2022/10/27 07:35:57;;;;;;;5.72;1.05;;;17.20;99.90;;;;;;5053140;28;20236;-81
2022/10/27 07:38:22;;;;;;;5.35;0.98;;;17.20;99.90;;;;;;5051278;28;20172;-81
2022/10/27 07:40:49;;;;;;;5.05;1.40;;;17.30;99.90;;;;;;5051910;28;20190;-85
2022/10/27 07:43:14;;;;;;;15.52;1.10;;;17.30;99.90;;;;;;5051994;28;20213;-80
2022/10/27 07:45:41;;;;;;;2.92;1.20;;;17.30;99.90;;;;;;5051625;28;20179;-80
2022/10/27 07:48:15;;;;;;;5.97;1.48;;;17.50;99.90;;;;;;5050379;28;20167;-80
2022/10/27 07:50:42;;;;;;;2.17;1.13;;;17.60;99.90;;;;;;5050657;28;20213;-80
2022/10/27 07:53:08;;;;;;;11.05;1.40;;;17.70;99.90;;;;;;5050746;28;20634;-80
2022/10/27 07:55:35;;;;;;;10.73;1.58;;;17.60;99.90;;;;;;5050822;28;20171;-81
2022/10/27 07:58:12;;;;;;;2.75;1.17;;;17.70;99.90;;;;;;5051404;28;20210;-81
2022/10/27 08:00:40;;;;;;;3.42;1.90;;;17.90;99.90;;;;;;5051778;28;20323;-81
2022/10/27 08:03:12;;;;;;;2.67;1.20;;;17.90;99.90;;;;;;5050741;28;20186;-81
2022/10/27 08:05:37;;;;;;;6.15;1.35;;;17.90;99.90;;;;;;5051959;28;20681;-80
2022/10/27 08:08:05;;;;;;;5.70;1.20;;;18.00;99.90;;;;;;5051761;28;20191;-88
2022/10/27 08:10:33;;;;;;;5.22;1.42;;;18.10;99.90;;;;;;5051636;28;20215;-84
2022/10/27 08:12:58;;;;;;;6.20;2.05;;;18.20;99.90;;;;;;5052393;28;20163;-81
2022/10/27 08:15:24;;;;;;;8.18;1.40;;;18.30;99.90;;;;;;5048986;28;20241;-87
2022/10/27 08:17:56;;;;;;;6.30;1.92;;;18.50;99.90;;;;;;5050896;28;20199;-82
2022/10/27 08:20:22;;;;;;;3.95;1.50;;;18.50;99.90;;;;;;5050405;28;20191;-88
2022/10/27 08:22:56;;;;;;;5.63;1.38;;;18.50;99.90;;;;;;5050638;28;20167;-85
2022/10/27 08:25:21;;;;;;;4.70;1.40;;;18.60;99.90;;;;;;5052211;28;20201;-82
2022/10/27 08:27:47;;;;;;;4.30;1.35;;;18.70;99.90;;;;;;5054667;28;20195;-82
2022/10/27 08:30:13;;;;;;;11.70;1.90;;;18.90;99.90;;;;;;5036719;28;20254;-82
2022/10/27 08:32:38;;;;;;;8.00;1.50;;;18.90;99.90;;;;;;5034155;28;20167;-86
2022/10/27 08:35:04;;;;;;;7.35;1.50;;;19.00;99.90;;;;;;5035703;28;20164;-86
2022/10/27 08:37:30;;;;;;;9.10;1.48;;;19.10;99.90;;;;;;5035480;28;20646;-85
2022/10/27 08:39:55;;;;;;;6.45;1.58;;;19.10;99.90;;;;;;5049924;28;20198;-83
2022/10/27 08:42:48;;;;;;;8.02;1.85;;;19.20;99.90;;;;;;5056222;28;20175;-86
2022/10/27 08:45:18;;;;;;;4.68;1.88;;;19.30;99.90;;;;;;5055992;28;20204;-87
2022/10/27 08:47:44;;;;;;;5.97;1.50;;;19.50;99.90;;;;;;5055906;28;20195;-88
2022/10/27 08:50:13;;;;;;;5.28;1.67;;;19.60;99.90;;;;;;5037936;28;20203;-88
2022/10/27 08:52:44;;;;;;;19.58;1.73;;;19.70;99.90;;;;;;5037567;28;20200;-91
2022/10/27 08:55:13;;;;;;;5.88;1.38;;;19.70;99.90;;;;;;5036731;28;20203;-90
2022/10/27 08:57:49;;;;;;;8.65;1.48;;;19.70;99.90;;;;;;5035276;28;20544;-90
2022/10/27 09:00:14;;;;;;;4.18;1.58;;;19.70;99.90;;;;;;5054466;28;20186;-90
2022/10/27 09:03:02;;;;;;;5.05;2.17;;;19.80;99.90;;;;;;5056387;28;20246;-90
2022/10/27 09:05:50;;;;;;;6.47;1.45;;;19.90;99.90;;;;;;5056058;28;20262;-90
2022/10/27 09:08:30;;;;;;;7.25;1.73;;;19.80;99.90;;;;;;5055311;28;20181;-88
2022/10/27 09:11:21;;;;;;;4.13;1.40;;;19.90;99.90;;;;;;5055503;28;20205;-89
2022/10/27 09:14:24;;;;;;;5.05;1.63;;;20.10;99.90;;;;;;5056419;28;20163;-90
2022/10/27 09:16:56;;;;;;;11.63;2.00;;;20.20;99.90;;;;;;5014430;28;20200;-89
2022/10/27 09:19:28;;;;;;;14.35;1.95;;;20.30;99.90;;;;;;5045111;28;20265;-89
2022/10/27 09:21:55;;;;;;;8.95;2.15;;;20.30;99.90;;;;;;5055272;28;20206;-90
2022/10/27 09:24:25;;;;;;;16.92;2.60;;;20.40;99.90;;;;;;5040061;28;20179;-89
2022/10/27 09:26:52;;;;;;;5.82;1.50;;;20.60;99.90;;;;;;5057890;28;20349;-90
2022/10/27 09:29:20;;;;;;;8.77;1.95;;;20.60;99.90;;;;;;5054922;28;20212;-89
2022/10/27 09:31:51;;;;;;;5.10;1.40;;;20.60;99.90;;;;;;5055717;28;20163;-89
2022/10/27 09:34:40;;;;;;;6.43;1.30;;;20.60;99.90;;;;;;5056063;28;20637;-89
2022/10/27 09:37:15;;;;;;;5.28;1.77;;;20.80;99.90;;;;;;5055603;28;20266;-89
2022/10/27 09:39:50;;;;;;;6.80;1.95;;;20.80;99.90;;;;;;5055071;28;20261;-89
2022/10/27 09:42:16;;;;;;;7.25;1.80;;;21.00;99.90;;;;;;5055624;28;20170;-90
2022/10/27 09:44:53;;;;;;;10.13;1.45;;;20.90;99.90;;;;;;5054783;28;20171;-89
2022/10/27 09:47:25;;;;;;;3.03;1.40;;;21.00;99.90;;;;;;5055985;28;20183;-89
2022/10/27 09:49:52;;;;;;;7.85;1.55;;;21.10;99.90;;;;;;5054849;28;20203;-89
2022/10/27 09:52:38;;;;;;;10.18;1.63;;;21.00;99.90;;;;;;5054845;28;20171;-89
2022/10/27 09:55:04;;;;;;;5.05;1.50;;;21.10;99.90;;;;;;5054918;28;20216;-88
2022/10/27 09:57:36;;;;;;;6.72;1.70;;;21.20;99.90;;;;;;5054289;28;20191;-89
2022/10/27 10:00:24;;;;;;;13.85;2.00;;;21.20;99.90;;;;;;5055845;28;20281;-90
2022/10/27 10:03:05;;;;;;;9.93;2.40;;;21.20;99.90;;;;;;5054626;28;20529;-89
2022/10/27 10:05:34;;;;;;;2.63;1.50;;;21.20;99.90;;;;;;5048729;28;20210;-83
2022/10/27 10:08:23;;;;;;;6.05;1.48;;;21.30;99.90;;;;;;5050747;28;20191;-83
2022/10/27 10:10:53;;;;;;;11.57;2.40;;;21.40;99.90;;;;;;5054022;28;20199;-85
2022/10/27 10:13:20;;;;;;;3.58;1.83;;;21.40;99.90;;;;;;5052961;28;20254;-82
2022/10/27 10:15:46;;;;;;;6.03;1.50;;;21.60;99.90;;;;;;5053830;28;20233;-84
2022/10/27 10:18:31;;;;;;;7.13;1.80;;;21.60;99.90;;;;;;5054190;28;20174;-83
2022/10/27 10:20:59;;;;;;;2.83;1.70;;;21.70;99.90;;;;;;5053564;28;20171;-83
2022/10/27 10:23:28;;;;;;;7.75;2.05;;;21.80;99.90;;;;;;5053262;28;20608;-84
2022/10/27 10:25:59;;;;;;;5.93;1.50;;;21.70;99.90;;;;;;5060809;28;20174;-90
2022/10/27 10:28:41;;;;;;;7.13;2.00;;;21.80;99.90;;;;;;5055118;28;20258;-89
2022/10/27 10:31:09;;;;;;;11.18;2.38;;;21.70;99.90;;;;;;5052081;28;20183;-91
2022/10/27 10:33:38;;;;;;;7.00;1.45;;;21.70;99.90;;;;;;5053367;28;20166;-83
2022/10/27 10:36:27;;;;;;;6.57;1.90;;;21.80;99.90;;;;;;5051939;28;20191;-88
2022/10/27 10:38:57;;;;;;;7.28;1.83;;;22.00;99.90;;;;;;5051812;28;20160;-83
2022/10/27 10:41:24;;;;;;;11.38;2.17;;;22.10;99.90;;;;;;5053294;28;20163;-90
2022/10/27 10:44:14;;;;;;;7.13;2.50;;;22.20;99.90;;;;;;5051905;28;20320;-89
2022/10/27 10:46:52;;;;;;;8.38;2.40;;;22.40;99.90;;;;;;5043251;28;20199;-89
2022/10/27 10:49:24;;;;;;;11.93;3.13;;;22.30;99.90;;;;;;5050261;28;20198;-81
2022/10/27 10:51:53;;;;;;;13.43;2.17;;;22.10;99.90;;;;;;5052631;28;20656;-83
2022/10/27 10:54:40;;;;;;;5.65;3.25;;;22.20;99.90;;;;;;5052079;28;20182;-83
2022/10/27 10:57:20;;;;;;;6.93;1.98;;;22.10;99.90;;;;;;5052096;28;20191;-83
2022/10/27 10:59:48;;;;;;;6.43;2.70;;;22.10;99.90;;;;;;5062793;28;20182;-83
2022/10/27 11:02:27;;;;;;;15.35;3.28;;;22.20;99.90;;;;;;5060911;28;20175;-87
2022/10/27 11:04:54;;;;;;;5.18;2.10;;;22.20;99.90;;;;;;5052337;28;20179;-83
2022/10/27 11:07:30;;;;;;;5.40;1.90;;;22.30;99.90;;;;;;5045507;28;20202;-84
2022/10/27 11:10:01;;;;;;;8.93;2.10;;;22.40;99.90;;;;;;5031430;28;20230;-87
2022/10/27 11:12:30;;;;;;;13.15;2.20;;;22.40;99.90;;;;;;5048051;28;20183;-82
2022/10/27 11:14:59;;;;;;;7.22;2.03;;;22.40;99.90;;;;;;5051859;28;20175;-88
2022/10/27 11:17:26;;;;;;;24.27;2.83;;;22.60;99.90;;;;;;5053843;28;20225;-91
2022/10/27 11:19:53;;;;;;;9.35;2.38;;;22.50;99.90;;;;;;5051909;28;20264;-83
2022/10/27 11:22:20;;;;;;;8.10;2.30;;;22.60;99.90;;;;;;5051720;28;20178;-86
2022/10/27 11:24:59;;;;;;;10.93;2.08;;;22.80;99.90;;;;;;5051276;28;20206;-87
2022/10/27 11:27:31;;;;;;;8.80;1.98;;;23.10;99.90;;;;;;5051757;28;20669;-84
2022/10/27 11:30:05;;;;;;;19.25;2.50;;;23.00;99.90;;;;;;5052431;28;20257;-86
2022/10/27 11:32:35;;;;;;;6.53;2.25;;;23.00;99.90;;;;;;5052338;28;20183;-84
2022/10/27 11:35:26;;;;;;;6.57;2.60;;;23.20;99.90;;;;;;5052787;28;20163;-84
2022/10/27 11:38:17;;;;;;;7.65;2.30;;;23.30;99.90;;;;;;5052410;28;20191;-84
2022/10/27 11:40:56;;;;;;;5.75;2.35;;;23.40;99.90;;;;;;5051732;28;20191;-84
2022/10/27 11:44:10;;;;;;;9.85;2.53;;;23.50;99.90;;;;;;5051840;28;20616;-83
2022/10/27 11:46:41;;;;;;;11.32;2.30;;;23.40;99.90;;;;;;5030138;28;20202;-86
2022/10/27 11:49:30;;;;;;;4.53;2.10;;;23.50;99.90;;;;;;5046936;28;20209;-83
2022/10/27 11:52:06;;;;;;;8.63;1.60;;;23.60;99.90;;;;;;5049063;28;20186;-84
2022/10/27 11:54:32;;;;;;;13.07;1.98;;;23.60;99.90;;;;;;5051042;28;20193;-83
2022/10/27 11:57:29;;;;;;;4.90;2.15;;;23.70;99.90;;;;;;5052103;28;20661;-82
2022/10/27 12:00:15;;;;;;;8.38;2.45;;;23.70;99.90;;;;;;5051155;28;20260;-82
2022/10/27 12:02:43;;;;;;;7.80;2.30;;;23.70;99.90;;;;;;5056378;28;20159;-88
2022/10/27 12:05:16;;;;;;;9.25;2.08;;;23.80;99.90;;;;;;5054891;28;20548;-84
2022/10/27 12:08:09;;;;;;;16.83;2.05;;;23.90;99.90;;;;;;5054471;28;20191;-84
2022/10/27 12:10:45;;;;;;;9.85;2.15;;;24.10;99.90;;;;;;5054400;28;20210;-82
2022/10/27 12:13:20;;;;;;;7.18;2.65;;;24.10;99.90;;;;;;5055914;28;20171;-83
2022/10/27 12:15:52;;;;;;;9.40;2.95;;;24.00;99.90;;;;;;5056117;28;20216;-86
2022/10/27 12:18:46;;;;;;;14.13;2.10;;;24.00;99.90;;;;;;5056090;28;20183;-81
2022/10/27 12:21:40;;;;;;;19.15;2.47;;;24.00;99.90;;;;;;5056261;28;20167;-83
2022/10/27 12:24:20;;;;;;;5.22;2.20;;;23.90;99.90;;;;;;5054263;28;20171;-83
2022/10/27 12:27:04;;;;;;;6.15;2.58;;;23.90;99.90;;;;;;5055729;28;20187;-83
2022/10/27 12:29:42;;;;;;;4.95;2.47;;;23.70;99.90;;;;;;5054346;28;20256;-82
2022/10/27 12:32:18;;;;;;;10.18;2.17;;;23.70;99.90;;;;;;5056240;28;20178;-83
2022/10/27 12:35:10;;;;;;;6.65;1.92;;;23.70;99.90;;;;;;5055925;28;20225;-82
2022/10/27 12:37:59;;;;;;;8.25;2.08;;;23.70;99.90;;;;;;5053432;28;20837;-83
2022/10/27 12:40:33;;;;;;;17.17;2.60;;;23.60;99.90;;;;;;5035049;28;21013;-83
2022/10/27 12:43:28;;;;;;;8.65;2.35;;;23.50;99.90;;;;;;5054616;28;20170;-88
2022/10/27 12:45:56;;;;;;;7.70;2.13;;;23.50;99.90;;;;;;5055309;28;20168;-83
2022/10/27 12:48:43;;;;;;;6.25;2.10;;;23.60;99.90;;;;;;5053927;28;20178;-92
2022/10/27 12:51:33;;;;;;;12.65;1.85;;;23.60;99.90;;;;;;5055905;28;20187;-89
2022/10/27 12:54:30;;;;;;;4.30;1.90;;;23.30;99.90;;;;;;5055832;28;20163;-89
2022/10/27 12:57:05;;;;;;;8.95;2.50;;;23.40;99.90;;;;;;5055287;28;20190;-82
2022/10/27 12:59:55;;;;;;;5.10;1.98;;;23.50;99.90;;;;;;5055221;28;20222;-83
2022/10/27 13:02:27;;;;;;;13.75;2.08;;;23.60;99.90;;;;;;5054743;28;20626;-83
2022/10/27 13:05:17;;;;;;;12.32;2.25;;;23.60;99.90;;;;;;5057256;28;20696;-92